Leaf River, IL (61047)

8:09 AM CST on January 20, 2017 (GMT -0600)
| | Change Station
Active Advisory: Areal Flood Warning Active Notice: Public Information Statement

Elev -9999 ft 0.00 °N, 0.00 °E | Updated 0 second ago

Overcast
Overcast
°F
Feels Like °F
N
Wind Variable Wind from North
Gusts mph

Today
High -- | Low -- °F
--% Chance of Precip.
Yesterday
High -- | Low -- °F
Precip. -- in
Pressure 29.66 in
Visibility 0.2 miles
Clouds Overcast 200 ft
Dew Point Not available.
Humidity Not available.
Rainfall --
Snow Depth Not available.
7:20 AM 4:57 PM
Last Quarter, 44% visible
METAR KFEP 201355Z AUTO 00000KT 1/4SM FG OVC002 02/01 A2966 RMK AO2 T00150014
Pressure 29.66 in
Visibility 0.2 miles
Clouds Overcast 200 ft
Dew Point Not available.
Humidity Not available.
Rainfall --
Snow Depth Not available.
7:20 AM 4:57 PM
Last Quarter, 44% visible
METAR KFEP 201355Z AUTO 00000KT 1/4SM FG OVC002 02/01 A2966 RMK AO2 T00150014

Get Your Daily Forecast Email!

Thanks for signing up!

Be on the lookout for a verification email in your inbox.

You'll start receiving the daily forecast at 8 AM.

×

10-Day Weather Forecast

Almanac

Astronomy

Jan. 20, 2017 Rise Set
Actual Time
Civil Twilight
Nautical Twilight
Astronomical Twilight
Moon
Length of Visible Light
Length of Day
Tomorrow will be .
, % of the Moon is Illuminated

Today's Extremes

State Highs State Lows

Community

WunderPhotos

Upload Photos

1,962,540 photos uploaded!

WunderBlog® & News

Nearby

Air Quality

  Air Quality AQ Index Pollutant
Not available.

Snow Depth

Station Depth Elevation

Earthquake Activity

City Distance Mag. Time & Date
Minimum magnitude displayed is 2.5.

Coastal Water Temperatures

Place Temperature

Stations

Nearby Weather Stations

Station Location Temp. Windchill Dew Point Humidity Wind Precip. Elev Updated Type
                   

Watches & Warnings

Areal Flood Warning
Issued: 2:44 PM CST Jan. 19, 2017 – National Weather Service

... A Flood Warning for an ice jam remains in effect until 945 am CST
Friday for south central Ogle and north central Lee counties...

At 240 PM CST, trained weather spotters reported flooding in and
around Grand Detour due to an ice jam. Ice jams can result in Rapid
River level fluctuations. As a result, flooding will continue to be
possible for areas near the river today.

Some locations that will experience flooding include...
Grand Detour.

Precautionary/preparedness actions...


Lat... Lon 4197 8931 4187 8939 4183 8946 4186 8950
      4194 8949 4193 8943 4199 8936


Ratzer